메인 페이지
METAR-TAF:

METAR-TAF

공항 :

이즈미르, 터키

위도: 38-30N, 경도: 027-01E, 고도: 5m

현재 날씨관측

예보는 3 시간 42분 전, 13:21시(UTC)에 발표되었습니다.
11kt, 순간 최대 풍속 21kt남동풍과 남서풍을 오가는
온도 20°C
습도 49%
기압 1011 hPa
시정 10km 이상
고도 4000ft 상공 구름 조금
고도 20000ft 상공 구름 보통

METAR: LTBL 261321Z 18011G21KT 140V230 9999 FEW040 SCT200 20/09 Q1011 NOSIG RMK RWY17 19011KT 130V250

시각: 20:03 (17:03 UTC)

예보

예보는 3 시간 23분 전, 13:40시(UTC)에 발표되었습니다.
예보 대상 시간: 26일 15시부터 26일 24시까지 (UTC)
남남동15kt, 순간 최대 풍속 25kt
시정 10km 이상
고도 4000ft 상공 구름 조금
고도 20000ft 상공 구름 보통
전환 중
26일 20시부터 26일 22시까지 (UTC)
남동9kt

TAF: LTBL 261340Z 2615/2624 16015G25KT 9999 FEW040 SCT200 BECMG 2620/2622 13009KT

4,000개 이상의 공항 관측 자료 및 예보 (METAR 및 TAF 보고).

지도상에서 검색 가능한 기상관측소가 노란 점과 빨간 점으로 표시되어 있습니다.

기상관측소 명을 보려면 표시 위로 마우스를 이동하세요.

날씨 관측과 예보를 보려면 클릭하세요.

지도 변경 : 확대하려면 엑스 표시가 있는 녹색 버튼, 축소하려면 빼기 표시가 있는 녹색 버튼, 다음 페이지의 지도를 보려면 녹색 화살표를 클릭하세요.


METAR-TAF: